Repto Anamar, Puerto Rico
Current Conditions -  °F | °C
As of 4:56 AM on Thursday 18 Dec 2014 (Local Time) from TJSJ Reporting Station
Light Rain Light Rain  
Wind Chill: 76°   Ceiling: Unl
Heat Index: 76°   Visibility: 10mi
Dew Point: 70°   Wind: 6mph
Humidity: 82%   Direction: 80°E
Pressure: 30"   Gusts: NA
Location:  18.4519°N, 66.1817°W
Report Text: TJSJ 180856Z 08005KT 10SM -RA FEW030 SCT060 SCT080 24/21 A3000 RMK AO2 RAB42 SLP156 P0001 60002 T02440211 55005
Loading
Personal Weather Stations






























Interactive Weather Map New forecast layout! Learn more

10-Day Weather Forecast

Advertisements
Track Severe Weather on mobile